Time;durP1;ratioP1;P1;durP2;ratioP2;P2;SDS_P1;SDS_P2;PMS_P1;PMS_P2;Temp;Humidity;BMP_temperature;BMP_pressure;BME280_temperature;BME280_humidity;BME280_pressure;Samples;Min_cycle;Max_cycle;Signal;HPM_P1;HPM_P2
2021/12/01 00:00:44;;;;;;;3.33;1.70;;;;;;;;;;4954409;29;20027;-58
2021/12/01 00:03:11;;;;;;;5.60;2.23;;;;;;;;;;4955471;28;20038;-58
2021/12/01 00:05:38;;;;;;;6.13;1.43;;;;;;;;;;4956537;29;20598;-58
2021/12/01 00:08:05;;;;;;;4.83;1.67;;;;;;;;;;4958909;28;20025;-59
2021/12/01 00:10:34;;;;;;;5.80;1.80;;;;;;;;;;4972692;28;20029;-59
2021/12/01 00:13:03;;;;;;;5.37;2.27;;;;;;;;;;4954000;28;20475;-58
2021/12/01 00:15:30;;;;;;;19.13;2.70;;;;;;;;;;4970200;28;20811;-58
2021/12/01 00:17:57;;;;;;;6.23;2.07;;;;;;;;;;4969932;28;20031;-58
2021/12/01 00:20:24;;;;;;;4.90;2.73;;;;;;;;;;4972332;28;20027;-58
2021/12/01 00:22:51;;;;;;;7.37;2.10;;;;;;;;;;4974400;28;20062;-58
2021/12/01 00:25:19;;;;;;;9.23;2.20;;;;;;;;;;4970971;28;20019;-58
2021/12/01 00:27:50;;;;;;;16.03;1.80;;;;;;;;;;4955993;28;20034;-58
2021/12/01 00:30:17;;;;;;;6.27;2.37;;;;;;;;;;4968825;28;20038;-58
2021/12/01 00:32:44;;;;;;;7.47;2.47;;;;;;;;;;4972659;28;20035;-58
2021/12/01 00:35:10;;;;;;;5.27;2.43;;;;;;;;;;4970105;28;20015;-58
2021/12/01 00:37:38;;;;;;;8.03;2.53;;;;;;;;;;4969169;28;20496;-59
2021/12/01 00:40:09;;;;;;;6.67;2.30;;;;;;;;;;4969569;28;20019;-58
2021/12/01 00:42:36;;;;;;;9.30;3.43;;;;;;;;;;4955903;28;20090;-58
2021/12/01 00:45:08;;;;;;;9.20;2.70;;;;;;;;;;4973013;28;20031;-58
2021/12/01 00:47:46;;;;;;;5.60;2.23;;;;;;;;;;4974885;28;20023;-58
2021/12/01 00:50:15;;;;;;;4.27;2.10;;;;;;;;;;4974725;28;20121;-58
2021/12/01 00:52:42;;;;;;;5.97;2.50;;;;;;;;;;4974279;28;20378;-58
2021/12/01 00:55:09;;;;;;;9.23;3.50;;;;;;;;;;4952524;28;20548;-58
2021/12/01 00:57:36;;;;;;;6.87;2.63;;;;;;;;;;4950725;28;20039;-58
2021/12/01 01:00:07;;;;;;;8.73;2.80;;;;;;;;;;4954558;28;20054;-58
2021/12/01 01:02:35;;;;;;;5.87;2.60;;;;;;;;;;4969401;28;20023;-58
2021/12/01 01:05:01;;;;;;;8.23;3.33;;;;;;;;;;4971337;28;20031;-58
2021/12/01 01:07:28;;;;;;;7.73;3.00;;;;;;;;;;4972975;28;20038;-58
2021/12/01 01:09:55;;;;;;;6.70;2.20;;;;;;;;;;4974195;28;20034;-58
2021/12/01 01:18:08;;;;;;;5.23;1.97;;;;;;;;;;4970797;28;20017;-58
2021/12/01 01:20:35;;;;;;;6.60;2.80;;;;;;;;;;4969002;28;20034;-58
2021/12/01 01:23:02;;;;;;;10.20;3.50;;;;;;;;;;4968612;28;20525;-58
2021/12/01 01:25:29;;;;;;;12.10;3.40;;;;;;;;;;4968005;28;20426;-58
2021/12/01 01:27:56;;;;;;;11.03;3.40;;;;;;;;;;4972221;28;20054;-58
2021/12/01 01:30:23;;;;;;;17.13;3.17;;;;;;;;;;4974157;28;20480;-58
2021/12/01 01:32:50;;;;;;;11.87;3.20;;;;;;;;;;4962427;28;20036;-57
2021/12/01 01:35:18;;;;;;;9.70;3.10;;;;;;;;;;4954761;29;20051;-58
2021/12/01 01:37:45;;;;;;;9.17;2.77;;;;;;;;;;4968609;28;20045;-57
2021/12/01 01:40:12;;;;;;;16.20;3.63;;;;;;;;;;4968012;28;20042;-58
2021/12/01 01:42:39;;;;;;;16.80;6.70;;;;;;;;;;4967644;28;20030;-58
2021/12/01 01:45:06;;;;;;;18.43;7.20;;;;;;;;;;4968596;28;20030;-58
2021/12/01 01:47:33;;;;;;;20.80;10.77;;;;;;;;;;4968141;28;20051;-58
2021/12/01 01:50:24;;;;;;;10.33;6.07;;;;;;;;;;4971420;28;20019;-58
2021/12/01 01:52:49;;;;;;;37.03;17.77;;;;;;;;;;4973085;28;20023;-57
2021/12/01 01:55:16;;;;;;;25.93;12.20;;;;;;;;;;4974000;28;20470;-57
2021/12/01 01:57:44;;;;;;;20.33;7.57;;;;;;;;;;4973059;28;20030;-57
2021/12/01 02:00:11;;;;;;;18.83;7.80;;;;;;;;;;4973725;28;20501;-57
2021/12/01 02:02:38;;;;;;;11.77;4.83;;;;;;;;;;4967284;28;20066;-57
2021/12/01 02:05:05;;;;;;;13.00;5.50;;;;;;;;;;4949062;29;20039;-58
2021/12/01 02:07:33;;;;;;;12.00;5.60;;;;;;;;;;4947007;28;20031;-57
2021/12/01 02:10:00;;;;;;;10.67;4.37;;;;;;;;;;4963587;28;20122;-57
2021/12/01 02:12:27;;;;;;;10.03;4.90;;;;;;;;;;4971764;28;20023;-57
2021/12/01 02:14:53;;;;;;;7.70;3.23;;;;;;;;;;4972999;28;20026;-57
2021/12/01 02:17:22;;;;;;;9.83;3.60;;;;;;;;;;4973615;28;20023;-57
2021/12/01 02:19:52;;;;;;;8.93;3.90;;;;;;;;;;4955749;28;20090;-57
2021/12/01 02:22:19;;;;;;;16.80;5.43;;;;;;;;;;4954046;29;20047;-57
2021/12/01 02:24:47;;;;;;;25.27;6.50;;;;;;;;;;4949419;28;20035;-58
2021/12/01 02:27:14;;;;;;;9.60;4.27;;;;;;;;;;4948772;28;20027;-57
2021/12/01 02:29:41;;;;;;;6.80;3.23;;;;;;;;;;4967949;28;20192;-57
2021/12/01 02:32:08;;;;;;;10.53;3.67;;;;;;;;;;4966306;28;20038;-57
2021/12/01 02:34:38;;;;;;;10.70;3.40;;;;;;;;;;4955537;28;20028;-57
2021/12/01 02:37:06;;;;;;;9.03;4.20;;;;;;;;;;4954141;29;20035;-57
2021/12/01 02:39:35;;;;;;;7.83;2.53;;;;;;;;;;4953424;28;20088;-57
2021/12/01 02:42:08;;;;;;;5.77;2.37;;;;;;;;;;4953909;29;20058;-57
2021/12/01 02:44:35;;;;;;;7.13;2.77;;;;;;;;;;4953714;28;20094;-57
2021/12/01 02:47:03;;;;;;;5.57;3.00;;;;;;;;;;4949327;29;21524;-58
2021/12/01 02:49:30;;;;;;;4.57;2.53;;;;;;;;;;4949652;28;20031;-57
2021/12/01 02:51:57;;;;;;;7.47;2.67;;;;;;;;;;4948523;29;20023;-57
2021/12/01 02:54:26;;;;;;;5.03;2.17;;;;;;;;;;4962180;28;20041;-57
2021/12/01 02:56:55;;;;;;;4.77;2.20;;;;;;;;;;4960150;28;20062;-57
2021/12/01 02:59:22;;;;;;;6.97;2.30;;;;;;;;;;4953911;28;20030;-57
2021/12/01 03:01:49;;;;;;;5.37;2.43;;;;;;;;;;4959021;28;20118;-57
2021/12/01 03:04:16;;;;;;;13.47;2.17;;;;;;;;;;4972968;28;20410;-57
2021/12/01 03:06:46;;;;;;;9.77;2.40;;;;;;;;;;4955969;28;20046;-57
2021/12/01 03:09:15;;;;;;;4.40;1.63;;;;;;;;;;4949284;29;20043;-57
2021/12/01 03:11:43;;;;;;;5.07;2.23;;;;;;;;;;4948383;29;20031;-57
2021/12/01 03:14:13;;;;;;;4.47;1.70;;;;;;;;;;4948210;28;20031;-57
2021/12/01 03:16:40;;;;;;;4.10;1.77;;;;;;;;;;4948338;29;20046;-58
2021/12/01 03:19:09;;;;;;;4.30;1.70;;;;;;;;;;4952704;28;20498;-57
2021/12/01 03:21:41;;;;;;;6.70;2.13;;;;;;;;;;4967817;28;20034;-57
2021/12/01 03:24:08;;;;;;;5.73;2.63;;;;;;;;;;4961225;28;20070;-57
2021/12/01 03:26:36;;;;;;;6.37;2.47;;;;;;;;;;4957114;28;20134;-57
2021/12/01 03:29:04;;;;;;;11.23;2.60;;;;;;;;;;4957215;28;20027;-57
2021/12/01 03:31:31;;;;;;;10.27;2.20;;;;;;;;;;4954890;28;20023;-57
2021/12/01 03:33:58;;;;;;;6.03;2.17;;;;;;;;;;4970646;28;20102;-57
2021/12/01 03:36:26;;;;;;;6.07;2.00;;;;;;;;;;4969248;28;20392;-57
2021/12/01 03:38:52;;;;;;;6.70;1.70;;;;;;;;;;4951272;29;20047;-57
2021/12/01 03:41:19;;;;;;;7.07;1.90;;;;;;;;;;4955800;28;20114;-57
2021/12/01 03:43:47;;;;;;;2.73;1.47;;;;;;;;;;4958041;28;20039;-57
2021/12/01 03:46:16;;;;;;;5.27;1.40;;;;;;;;;;4975841;28;20031;-57
2021/12/01 03:48:43;;;;;;;6.13;1.80;;;;;;;;;;4975665;28;20035;-57
2021/12/01 03:51:09;;;;;;;7.30;1.57;;;;;;;;;;4976058;28;20037;-57
2021/12/01 03:53:36;;;;;;;4.07;1.90;;;;;;;;;;4971606;28;20426;-57
2021/12/01 03:56:05;;;;;;;3.63;1.80;;;;;;;;;;4970249;28;21649;-58
2021/12/01 03:58:32;;;;;;;4.47;1.90;;;;;;;;;;4970062;28;20471;-58
2021/12/01 04:00:58;;;;;;;2.77;1.40;;;;;;;;;;4970491;28;20027;-57
2021/12/01 04:03:25;;;;;;;6.97;1.87;;;;;;;;;;4956398;28;20031;-58
2021/12/01 04:05:52;;;;;;;5.63;2.07;;;;;;;;;;4956314;29;20034;-57
2021/12/01 04:08:19;;;;;;;5.80;2.07;;;;;;;;;;4961631;28;20034;-57
2021/12/01 04:10:46;;;;;;;7.10;2.47;;;;;;;;;;4975475;28;20033;-57
2021/12/01 04:13:12;;;;;;;8.77;2.10;;;;;;;;;;4969334;28;20361;-57
2021/12/01 04:15:39;;;;;;;6.77;1.80;;;;;;;;;;4953277;29;20068;-57
2021/12/01 04:18:06;;;;;;;5.77;2.00;;;;;;;;;;4966717;28;20027;-57
2021/12/01 04:20:33;;;;;;;6.33;2.40;;;;;;;;;;4970146;28;20510;-57
2021/12/01 04:23:02;;;;;;;5.77;2.00;;;;;;;;;;4969617;28;20370;-57
2021/12/01 04:25:30;;;;;;;8.17;2.13;;;;;;;;;;4972535;28;20066;-57
2021/12/01 04:27:58;;;;;;;5.53;2.30;;;;;;;;;;4973506;28;20066;-57
2021/12/01 04:30:26;;;;;;;4.90;2.40;;;;;;;;;;4974262;28;20027;-57
2021/12/01 04:32:53;;;;;;;6.73;2.60;;;;;;;;;;4975477;28;20030;-57
2021/12/01 04:35:24;;;;;;;5.97;2.30;;;;;;;;;;4969379;28;20019;-57
2021/12/01 04:37:51;;;;;;;3.90;1.90;;;;;;;;;;4954315;28;20909;-56
2021/12/01 04:40:19;;;;;;;6.30;2.50;;;;;;;;;;4969606;28;20058;-57
2021/12/01 04:42:48;;;;;;;5.43;2.23;;;;;;;;;;4952992;28;20041;-57
2021/12/01 04:45:17;;;;;;;7.17;2.77;;;;;;;;;;4969629;28;20242;-56
2021/12/01 04:48:02;;;;;;;8.97;2.43;;;;;;;;;;4972387;28;20026;-57
2021/12/01 04:50:30;;;;;;;6.22;1.95;;;;;;;;;;4966079;28;20035;-57
2021/12/01 04:52:58;;;;;;;3.97;1.80;;;;;;;;;;4972907;28;20046;-58
2021/12/01 04:55:25;;;;;;;5.30;2.23;;;;;;;;;;4974062;28;20069;-57
2021/12/01 04:57:52;;;;;;;4.57;2.00;;;;;;;;;;4974351;28;20110;-58
2021/12/01 05:00:21;;;;;;;4.03;1.70;;;;;;;;;;4971126;28;20385;-56
2021/12/01 05:02:48;;;;;;;3.83;2.00;;;;;;;;;;4969528;28;20035;-57
2021/12/01 05:05:15;;;;;;;4.47;1.70;;;;;;;;;;4969143;28;20058;-58
2021/12/01 05:07:43;;;;;;;6.33;2.40;;;;;;;;;;4969409;28;20035;-57
2021/12/01 05:10:10;;;;;;;2.57;1.40;;;;;;;;;;4972066;28;20035;-57
2021/12/01 05:12:38;;;;;;;5.13;1.83;;;;;;;;;;4974717;28;20030;-57
2021/12/01 05:15:07;;;;;;;3.97;1.90;;;;;;;;;;4974594;28;20023;-57
2021/12/01 05:17:34;;;;;;;5.33;1.97;;;;;;;;;;4957211;28;20393;-57
2021/12/01 05:20:05;;;;;;;6.37;3.00;;;;;;;;;;4974157;28;20105;-57
2021/12/01 05:22:32;;;;;;;5.97;2.77;;;;;;;;;;4971342;28;20023;-57
2021/12/01 05:24:59;;;;;;;9.07;3.50;;;;;;;;;;4969068;28;20158;-57
2021/12/01 05:27:26;;;;;;;10.50;4.90;;;;;;;;;;4969085;28;20037;-56
2021/12/01 05:29:52;;;;;;;6.80;3.70;;;;;;;;;;4969071;28;20081;-57
2021/12/01 05:32:20;;;;;;;8.37;4.40;;;;;;;;;;4971603;28;20033;-57
2021/12/01 05:34:47;;;;;;;6.80;3.90;;;;;;;;;;4974008;28;20155;-57
2021/12/01 05:37:14;;;;;;;10.53;3.57;;;;;;;;;;4973995;28;20039;-57
2021/12/01 05:39:44;;;;;;;6.70;3.43;;;;;;;;;;4974187;28;20031;-57
2021/12/01 05:42:15;;;;;;;8.50;3.50;;;;;;;;;;4973937;28;20481;-57
2021/12/01 05:44:42;;;;;;;7.13;3.80;;;;;;;;;;4970697;28;20046;-57
2021/12/01 05:47:09;;;;;;;5.73;2.73;;;;;;;;;;4968812;28;20081;-57
2021/12/01 05:49:42;;;;;;;6.53;2.77;;;;;;;;;;4968519;28;20033;-56
2021/12/01 05:52:09;;;;;;;5.13;2.90;;;;;;;;;;4968688;28;20038;-57
2021/12/01 05:54:37;;;;;;;5.50;3.00;;;;;;;;;;4971090;28;20037;-56
2021/12/01 05:57:04;;;;;;;11.17;3.27;;;;;;;;;;4973933;28;20054;-57
2021/12/01 05:59:30;;;;;;;5.03;2.07;;;;;;;;;;4973900;28;20078;-57
2021/12/01 06:01:57;;;;;;;7.20;3.00;;;;;;;;;;4973899;28;20027;-57
2021/12/01 06:04:24;;;;;;;6.43;2.83;;;;;;;;;;4973740;28;20466;-57
2021/12/01 06:06:51;;;;;;;7.83;2.90;;;;;;;;;;4970593;28;20114;-57
2021/12/01 06:09:18;;;;;;;8.50;2.87;;;;;;;;;;4968301;28;20084;-56
2021/12/01 06:11:47;;;;;;;4.83;2.60;;;;;;;;;;4968479;28;20056;-57
2021/12/01 06:14:16;;;;;;;5.60;2.70;;;;;;;;;;4968487;28;20027;-57
2021/12/01 06:16:46;;;;;;;7.27;2.60;;;;;;;;;;4970302;28;20038;-57
2021/12/01 06:19:13;;;;;;;10.90;1.93;;;;;;;;;;4973732;28;20049;-57
2021/12/01 06:21:40;;;;;;;7.73;1.93;;;;;;;;;;4973124;28;20089;-57
2021/12/01 06:24:06;;;;;;;5.67;1.80;;;;;;;;;;4973382;28;20392;-56
2021/12/01 06:26:33;;;;;;;7.23;2.20;;;;;;;;;;4973466;28;20113;-56
2021/12/01 06:29:00;;;;;;;3.50;1.70;;;;;;;;;;4971198;28;20123;-57
2021/12/01 06:31:27;;;;;;;5.50;2.30;;;;;;;;;;4968385;28;20355;-56
2021/12/01 06:33:54;;;;;;;10.70;2.20;;;;;;;;;;4968188;28;20027;-57
2021/12/01 06:36:20;;;;;;;4.90;1.90;;;;;;;;;;4968179;28;20478;-57
2021/12/01 06:38:47;;;;;;;3.97;1.73;;;;;;;;;;4969377;28;20062;-57
2021/12/01 06:41:14;;;;;;;3.20;1.60;;;;;;;;;;4973544;28;20085;-57
2021/12/01 06:43:40;;;;;;;5.03;1.90;;;;;;;;;;4973298;28;20031;-57
2021/12/01 06:46:07;;;;;;;10.80;2.77;;;;;;;;;;4973294;28;20035;-57
2021/12/01 06:48:34;;;;;;;6.33;2.33;;;;;;;;;;4973477;28;20093;-56
2021/12/01 06:51:01;;;;;;;8.13;2.37;;;;;;;;;;4971576;28;20097;-57
2021/12/01 06:53:29;;;;;;;4.63;2.57;;;;;;;;;;4967968;28;20062;-56
2021/12/01 06:55:56;;;;;;;6.10;2.30;;;;;;;;;;4971693;28;20030;-57
2021/12/01 06:58:23;;;;;;;3.80;1.90;;;;;;;;;;4971867;28;20026;-57
2021/12/01 07:00:49;;;;;;;2.53;1.33;;;;;;;;;;4972855;28;20081;-56
2021/12/01 07:03:17;;;;;;;8.33;2.20;;;;;;;;;;4976954;28;20437;-56
2021/12/01 07:05:43;;;;;;;8.33;1.90;;;;;;;;;;4976885;28;20027;-57
2021/12/01 07:08:10;;;;;;;5.90;2.20;;;;;;;;;;4976867;28;20039;-56
2021/12/01 07:10:37;;;;;;;10.57;3.03;;;;;;;;;;4976489;28;20042;-57
2021/12/01 07:13:04;;;;;;;6.83;2.50;;;;;;;;;;4975452;28;20105;-57
2021/12/01 07:15:30;;;;;;;5.50;2.60;;;;;;;;;;4971225;28;20023;-57
2021/12/01 07:17:57;;;;;;;4.77;2.33;;;;;;;;;;4971534;28;20030;-57
2021/12/01 07:20:24;;;;;;;5.33;2.10;;;;;;;;;;4971326;28;20121;-57
2021/12/01 07:22:51;;;;;;;6.33;2.60;;;;;;;;;;4971944;28;20524;-57
2021/12/01 07:25:17;;;;;;;5.77;2.83;;;;;;;;;;4976647;28;20041;-57
2021/12/01 07:27:44;;;;;;;8.17;2.47;;;;;;;;;;4976026;28;20019;-56
2021/12/01 07:30:11;;;;;;;5.27;2.50;;;;;;;;;;4976623;28;20027;-56
2021/12/01 07:32:38;;;;;;;4.77;2.87;;;;;;;;;;4976506;28;20050;-56
2021/12/01 07:35:05;;;;;;;5.27;2.73;;;;;;;;;;4975500;28;20043;-57
2021/12/01 07:37:32;;;;;;;8.60;2.43;;;;;;;;;;4971078;28;20261;-56
2021/12/01 07:39:59;;;;;;;6.07;2.60;;;;;;;;;;4971114;28;20045;-54
2021/12/01 07:42:25;;;;;;;5.60;3.00;;;;;;;;;;4970776;28;20265;-54
2021/12/01 07:44:52;;;;;;;4.73;2.60;;;;;;;;;;4970829;28;20387;-54
2021/12/01 07:47:19;;;;;;;6.90;2.37;;;;;;;;;;4976159;28;20166;-54
2021/12/01 07:49:46;;;;;;;5.90;2.00;;;;;;;;;;4976304;28;20272;-54
2021/12/01 07:52:13;;;;;;;4.83;1.70;;;;;;;;;;4976015;28;20101;-54
2021/12/01 07:54:40;;;;;;;4.37;2.20;;;;;;;;;;4975922;28;20022;-54
2021/12/01 07:57:08;;;;;;;3.30;1.90;;;;;;;;;;4975663;28;20062;-54
2021/12/01 07:59:35;;;;;;;4.40;1.70;;;;;;;;;;4970115;28;20031;-54
2021/12/01 08:02:02;;;;;;;7.03;2.20;;;;;;;;;;4970734;28;20034;-54
2021/12/01 08:04:29;;;;;;;4.70;2.00;;;;;;;;;;4970324;28;20151;-54
2021/12/01 08:06:56;;;;;;;3.80;1.70;;;;;;;;;;4969539;28;20323;-54
2021/12/01 08:09:24;;;;;;;6.63;2.10;;;;;;;;;;4975531;28;20344;-54
2021/12/01 08:11:52;;;;;;;4.03;1.77;;;;;;;;;;4975614;28;20269;-54
2021/12/01 08:14:19;;;;;;;2.97;1.60;;;;;;;;;;4975320;28;20268;-54
2021/12/01 08:16:45;;;;;;;3.17;1.60;;;;;;;;;;4975754;28;20267;-54
2021/12/01 08:19:12;;;;;;;2.93;1.40;;;;;;;;;;4975611;28;20261;-54
2021/12/01 08:21:39;;;;;;;3.87;1.80;;;;;;;;;;4970102;28;20744;-54
2021/12/01 08:24:06;;;;;;;4.23;1.43;;;;;;;;;;4970195;28;20335;-54
2021/12/01 08:26:33;;;;;;;2.30;1.23;;;;;;;;;;4970225;28;20312;-54
2021/12/01 08:29:00;;;;;;;2.70;1.30;;;;;;;;;;4970158;28;20799;-54
2021/12/01 08:31:27;;;;;;;5.03;1.40;;;;;;;;;;4974754;28;20261;-54
2021/12/01 08:33:53;;;;;;;3.13;1.10;;;;;;;;;;4975422;28;20291;-54
2021/12/01 08:36:20;;;;;;;1.67;1.00;;;;;;;;;;4975346;28;20673;-54
2021/12/01 08:38:47;;;;;;;1.90;1.00;;;;;;;;;;4975203;28;20732;-54
2021/12/01 08:41:13;;;;;;;2.50;1.23;;;;;;;;;;4975267;28;20631;-54
2021/12/01 08:43:40;;;;;;;2.13;0.80;;;;;;;;;;4970163;28;20288;-54
2021/12/01 08:46:07;;;;;;;2.87;1.00;;;;;;;;;;4969496;28;20279;-54
2021/12/01 08:48:35;;;;;;;2.13;1.20;;;;;;;;;;4969863;28;20249;-54
2021/12/01 08:51:03;;;;;;;2.50;1.20;;;;;;;;;;4969921;28;20343;-54
2021/12/01 08:53:33;;;;;;;2.83;1.63;;;;;;;;;;4973768;28;20281;-53
2021/12/01 08:56:01;;;;;;;3.10;1.30;;;;;;;;;;4974897;28;20265;-53
2021/12/01 08:58:28;;;;;;;3.70;1.40;;;;;;;;;;4974794;28;20257;-54
2021/12/01 09:00:55;;;;;;;2.93;1.17;;;;;;;;;;4974896;28;20705;-54
2021/12/01 09:03:23;;;;;;;3.33;1.20;;;;;;;;;;4974689;28;20791;-54
2021/12/01 09:05:51;;;;;;;4.47;1.50;;;;;;;;;;4969838;28;20304;-54
2021/12/01 09:08:20;;;;;;;2.70;1.07;;;;;;;;;;4969390;28;20313;-54
2021/12/01 09:10:48;;;;;;;3.23;1.40;;;;;;;;;;4969302;28;20261;-54
2021/12/01 09:13:15;;;;;;;2.37;1.37;;;;;;;;;;4969341;28;20253;-54
2021/12/01 09:15:42;;;;;;;3.23;1.43;;;;;;;;;;4973150;28;20268;-53
2021/12/01 09:18:10;;;;;;;3.10;1.43;;;;;;;;;;4974150;28;20256;-54
2021/12/01 09:20:36;;;;;;;2.67;1.40;;;;;;;;;;4974471;28;20271;-54
2021/12/01 09:23:03;;;;;;;4.20;1.60;;;;;;;;;;4974482;28;20257;-53
2021/12/01 09:25:31;;;;;;;2.57;1.47;;;;;;;;;;4974362;28;20268;-54
2021/12/01 09:27:57;;;;;;;2.60;1.30;;;;;;;;;;4969766;28;20806;-55
2021/12/01 09:30:24;;;;;;;3.67;1.60;;;;;;;;;;4968992;28;20340;-54
2021/12/01 09:32:51;;;;;;;2.40;1.53;;;;;;;;;;4968924;28;20263;-54
2021/12/01 09:35:18;;;;;;;2.37;1.40;;;;;;;;;;4969060;28;20271;-54
2021/12/01 09:37:45;;;;;;;3.90;1.23;;;;;;;;;;4972588;28;20648;-53
2021/12/01 09:40:13;;;;;;;2.63;1.30;;;;;;;;;;4974318;28;20279;-53
2021/12/01 09:42:44;;;;;;;3.47;1.43;;;;;;;;;;4973989;28;20335;-54
2021/12/01 09:45:12;;;;;;;3.73;1.27;;;;;;;;;;4973611;28;20331;-54
2021/12/01 09:47:39;;;;;;;2.73;1.20;;;;;;;;;;4973935;28;20266;-54
2021/12/01 09:50:07;;;;;;;2.63;1.57;;;;;;;;;;4969629;28;21027;-53
2021/12/01 09:52:34;;;;;;;2.17;1.10;;;;;;;;;;4968603;28;20320;-53
2021/12/01 09:55:01;;;;;;;1.87;1.13;;;;;;;;;;4968616;28;20252;-54
2021/12/01 09:57:27;;;;;;;2.80;1.30;;;;;;;;;;4968388;28;20678;-53
2021/12/01 09:59:54;;;;;;;2.23;1.20;;;;;;;;;;4972237;28;20296;-54
2021/12/01 10:02:24;;;;;;;5.03;1.03;;;;;;;;;;4973496;28;20257;-53
2021/12/01 10:04:51;;;;;;;1.87;1.27;;;;;;;;;;4973616;28;20300;-54
2021/12/01 10:07:19;;;;;;;2.30;1.30;;;;;;;;;;4973865;28;20268;-53
2021/12/01 10:09:47;;;;;;;1.90;1.10;;;;;;;;;;4973823;28;20264;-53
2021/12/01 10:12:15;;;;;;;1.77;0.90;;;;;;;;;;4961701;28;20270;-53
2021/12/01 10:14:46;;;;;;;4.03;1.00;;;;;;;;;;4950533;28;20257;-54
2021/12/01 10:17:13;;;;;;;2.33;1.13;;;;;;;;;;4968743;28;20265;-54
2021/12/01 10:19:40;;;;;;;1.97;0.97;;;;;;;;;;4951368;28;20274;-54
2021/12/01 10:22:12;;;;;;;2.17;1.00;;;;;;;;;;4952747;29;20258;-54
2021/12/01 10:24:40;;;;;;;2.80;1.10;;;;;;;;;;4954553;28;20685;-54
2021/12/01 10:27:14;;;;;;;2.10;0.93;;;;;;;;;;4954022;29;20257;-54
2021/12/01 10:29:45;;;;;;;2.20;1.00;;;;;;;;;;4958247;28;20273;-54
2021/12/01 10:32:12;;;;;;;2.97;1.13;;;;;;;;;;4972999;28;20276;-54
2021/12/01 10:34:43;;;;;;;2.30;1.10;;;;;;;;;;4968201;28;20272;-54
2021/12/01 10:37:18;;;;;;;2.67;0.97;;;;;;;;;;4967886;28;20273;-54
2021/12/01 10:39:48;;;;;;;1.90;0.95;;;;;;;;;;4967673;28;20810;-54
2021/12/01 10:42:16;;;;;;;1.73;0.90;;;;;;;;;;4950646;28;20501;-54
2021/12/01 10:45:18;;;;;;;2.67;0.93;;;;;;;;;;4954359;28;20344;-54
2021/12/01 10:47:45;;;;;;;2.53;0.97;;;;;;;;;;4894251;29;20275;-54
2021/12/01 10:50:14;;;;;;;3.20;1.20;;;;;;;;;;4958208;28;20305;-54
2021/12/01 10:52:45;;;;;;;3.10;1.00;;;;;;;;;;4973436;28;20256;-54
2021/12/01 10:55:13;;;;;;;1.87;1.00;;;;;;;;;;4971001;28;20632;-54
2021/12/01 10:57:41;;;;;;;4.07;0.50;;;;;;;;;;4948807;29;20256;-54
2021/12/01 11:00:16;;;;;;;0.97;0.60;;;;;;;;;;4948393;28;20297;-54
2021/12/01 11:02:42;;;;;;;3.70;1.07;;;;;;;;;;4949634;28;20280;-54
2021/12/01 11:05:09;;;;;;;0.87;0.73;;;;;;;;;;4949478;29;20713;-54
2021/12/01 11:07:36;;;;;;;1.47;0.80;;;;;;;;;;4953708;28;20257;-54
2021/12/01 11:10:15;;;;;;;1.23;0.70;;;;;;;;;;4973042;28;20273;-54
2021/12/01 11:12:43;;;;;;;2.13;1.00;;;;;;;;;;4960068;28;20673;-53
2021/12/01 11:15:28;;;;;;;4.40;1.30;;;;;;;;;;4953883;29;20348;-54
2021/12/01 11:17:55;;;;;;;1.42;0.82;;;;;;;;;;4951240;28;20269;-54
2021/12/01 11:20:40;;;;;;;2.70;0.93;;;;;;;;;;4948580;29;20038;-54
2021/12/01 11:23:07;;;;;;;1.85;1.08;;;;;;;;;;4948472;28;20436;-54
2021/12/01 11:25:36;;;;;;;4.53;2.07;;;;;;;;;;4948434;29;20446;-54
2021/12/01 11:28:03;;;;;;;2.53;1.10;;;;;;;;;;4959179;28;20276;-54
2021/12/01 11:30:30;;;;;;;2.63;1.27;;;;;;;;;;4972343;28;20264;-54
2021/12/01 11:32:57;;;;;;;1.97;1.30;;;;;;;;;;4972552;28;20264;-54
2021/12/01 11:35:23;;;;;;;1.40;0.80;;;;;;;;;;4972684;28;20273;-54
2021/12/01 11:37:55;;;;;;;3.00;0.80;;;;;;;;;;4957846;28;20273;-54
2021/12/01 11:40:27;;;;;;;3.90;0.80;;;;;;;;;;4951859;28;20278;-54
2021/12/01 11:42:53;;;;;;;3.03;0.93;;;;;;;;;;4951865;29;20276;-54
2021/12/01 11:45:20;;;;;;;1.13;0.77;;;;;;;;;;4969053;28;20289;-54
2021/12/01 11:47:48;;;;;;;4.30;0.80;;;;;;;;;;4961810;28;20270;-54
2021/12/01 11:50:32;;;;;;;0.97;0.70;;;;;;;;;;4954319;29;20269;-54
2021/12/01 11:53:27;;;;;;;1.17;0.90;;;;;;;;;;4956724;28;20270;-53
2021/12/01 11:55:56;;;;;;;1.13;0.63;;;;;;;;;;4940725;29;20297;-53
2021/12/01 11:58:41;;;;;;;3.20;1.20;;;;;;;;;;4956574;28;20391;-54
2021/12/01 12:01:27;;;;;;;2.15;1.35;;;;;;;;;;4956766;28;20269;-53
2021/12/01 12:03:54;;;;;;;4.53;2.47;;;;;;;;;;4951019;28;20661;-54
2021/12/01 12:06:22;;;;;;;3.23;1.37;;;;;;;;;;4951532;29;20779;-54
2021/12/01 12:08:55;;;;;;;3.00;1.37;;;;;;;;;;4960815;28;20281;-53
2021/12/01 12:11:35;;;;;;;5.47;1.37;;;;;;;;;;4970757;28;20344;-53
2021/12/01 12:14:12;;;;;;;4.97;1.50;;;;;;;;;;4975372;28;20268;-53
2021/12/01 12:16:42;;;;;;;6.53;1.50;;;;;;;;;;4975352;28;20636;-54
2021/12/01 12:19:09;;;;;;;4.60;1.30;;;;;;;;;;4957021;28;20590;-54
2021/12/01 12:21:49;;;;;;;2.73;1.57;;;;;;;;;;4956299;29;20269;-53
2021/12/01 12:24:19;;;;;;;3.93;1.00;;;;;;;;;;4953933;28;20289;-54
2021/12/01 12:26:52;;;;;;;1.10;0.77;;;;;;;;;;4950906;29;20258;-54
2021/12/01 12:29:25;;;;;;;1.53;0.87;;;;;;;;;;4963605;28;20271;-54
2021/12/01 12:31:53;;;;;;;0.93;0.53;;;;;;;;;;4969623;28;20276;-53
2021/12/01 12:34:21;;;;;;;1.93;0.70;;;;;;;;;;4952951;28;20344;-53
2021/12/01 12:36:53;;;;;;;1.20;0.83;;;;;;;;;;4955931;29;20319;-54
2021/12/01 12:39:23;;;;;;;2.43;0.90;;;;;;;;;;4969520;28;20778;-54
2021/12/01 12:42:00;;;;;;;1.63;0.80;;;;;;;;;;4974967;28;20272;-53
2021/12/01 12:44:43;;;;;;;1.87;0.83;;;;;;;;;;4973156;28;20771;-53
2021/12/01 12:47:12;;;;;;;1.30;0.70;;;;;;;;;;4967989;28;20292;-53
2021/12/01 12:49:44;;;;;;;2.73;0.87;;;;;;;;;;4969862;28;20268;-53
2021/12/01 12:52:26;;;;;;;4.27;1.60;;;;;;;;;;4969358;28;20296;-53
2021/12/01 12:54:53;;;;;;;2.23;0.80;;;;;;;;;;4969111;28;20269;-53
2021/12/01 12:57:21;;;;;;;3.83;0.77;;;;;;;;;;4973606;28;20253;-53
2021/12/01 12:59:48;;;;;;;7.67;0.80;;;;;;;;;;4974391;28;20381;-53
2021/12/01 13:02:15;;;;;;;4.63;0.70;;;;;;;;;;4974224;28;20273;-53
2021/12/01 13:04:48;;;;;;;1.77;0.90;;;;;;;;;;4974418;28;20629;-53
2021/12/01 13:07:27;;;;;;;1.77;0.77;;;;;;;;;;4974668;28;20271;-53
2021/12/01 13:10:03;;;;;;;1.50;0.77;;;;;;;;;;4969226;28;20481;-54
2021/12/01 13:12:30;;;;;;;1.40;0.73;;;;;;;;;;4969142;28;20787;-53
2021/12/01 13:14:57;;;;;;;2.83;1.00;;;;;;;;;;4950405;28;20331;-53
2021/12/01 13:17:23;;;;;;;2.00;1.00;;;;;;;;;;4950120;28;20269;-53
2021/12/01 13:19:58;;;;;;;1.50;0.87;;;;;;;;;;4972700;28;20648;-53
2021/12/01 13:22:24;;;;;;;4.93;0.97;;;;;;;;;;4959583;28;20364;-53
2021/12/01 13:24:51;;;;;;;6.47;1.30;;;;;;;;;;4955047;29;20328;-53
2021/12/01 13:27:20;;;;;;;4.37;1.03;;;;;;;;;;4954939;29;20622;-54
2021/12/01 13:29:47;;;;;;;8.93;1.57;;;;;;;;;;4954162;28;20606;-54
2021/12/01 13:32:17;;;;;;;7.93;1.80;;;;;;;;;;4960882;28;20312;-53
2021/12/01 13:34:44;;;;;;;8.43;1.20;;;;;;;;;;4949892;28;20288;-53
2021/12/01 13:37:11;;;;;;;1.67;1.00;;;;;;;;;;4960934;28;20344;-54
2021/12/01 13:39:39;;;;;;;1.97;1.07;;;;;;;;;;4966294;28;20272;-54
2021/12/01 13:42:12;;;;;;;2.60;1.00;;;;;;;;;;4954646;29;20308;-53
2021/12/01 13:44:41;;;;;;;2.77;1.40;;;;;;;;;;4970211;28;20335;-54
2021/12/01 13:47:09;;;;;;;9.23;1.90;;;;;;;;;;4973946;28;20265;-54
2021/12/01 13:49:48;;;;;;;8.93;1.87;;;;;;;;;;4973660;28;20608;-54
2021/12/01 13:52:33;;;;;;;5.07;1.33;;;;;;;;;;4972514;28;20280;-54
2021/12/01 13:55:20;;;;;;;2.60;1.30;;;;;;;;;;4968397;28;20264;-54
2021/12/01 13:57:48;;;;;;;5.20;2.10;;;;;;;;;;4967992;28;20027;-53
2021/12/01 14:00:15;;;;;;;8.73;2.67;;;;;;;;;;4968139;28;20359;-54
2021/12/01 14:02:44;;;;;;;6.33;3.40;;;;;;;;;;4968496;28;20031;-54
2021/12/01 14:05:11;;;;;;;8.90;3.43;;;;;;;;;;4973136;28;20035;-54
2021/12/01 14:07:41;;;;;;;3.20;1.93;;;;;;;;;;4971404;28;20383;-54
2021/12/01 14:10:08;;;;;;;5.80;1.70;;;;;;;;;;4973311;28;20101;-54
2021/12/01 14:12:41;;;;;;;3.57;2.10;;;;;;;;;;4973821;28;20023;-53
2021/12/01 14:15:08;;;;;;;8.77;2.63;;;;;;;;;;4969603;28;20563;-53
2021/12/01 14:17:35;;;;;;;3.00;1.67;;;;;;;;;;4948873;29;20114;-54
2021/12/01 14:20:01;;;;;;;4.30;2.50;;;;;;;;;;4948770;29;20028;-53
2021/12/01 14:22:32;;;;;;;6.53;3.43;;;;;;;;;;4960677;28;20126;-54
2021/12/01 14:25:01;;;;;;;6.73;3.40;;;;;;;;;;4950754;29;20533;-55
2021/12/01 14:27:30;;;;;;;7.50;2.83;;;;;;;;;;4953919;29;20078;-54
2021/12/01 14:29:58;;;;;;;6.93;2.57;;;;;;;;;;4972415;28;20038;-56
2021/12/01 14:32:26;;;;;;;4.17;2.13;;;;;;;;;;4972952;28;20097;-57
2021/12/01 14:34:53;;;;;;;3.00;1.53;;;;;;;;;;4973005;28;20077;-59
2021/12/01 14:37:20;;;;;;;2.60;1.70;;;;;;;;;;4951165;28;20023;-56
2021/12/01 14:39:47;;;;;;;5.07;2.33;;;;;;;;;;4948560;29;20431;-56
2021/12/01 14:42:14;;;;;;;7.83;1.90;;;;;;;;;;4948277;29;20027;-56
2021/12/01 14:44:42;;;;;;;5.17;1.87;;;;;;;;;;4948483;28;20039;-56
2021/12/01 14:47:11;;;;;;;5.03;2.00;;;;;;;;;;4950732;29;20058;-56
2021/12/01 14:49:48;;;;;;;4.53;2.23;;;;;;;;;;4969856;28;20066;-56
2021/12/01 14:52:23;;;;;;;3.17;2.00;;;;;;;;;;4972827;28;20026;-57
2021/12/01 14:54:59;;;;;;;8.52;2.58;;;;;;;;;;4956252;28;20038;-57